createdAt,value
2022-08-22T00:00:36.680Z,0
2022-08-22T00:01:52.000Z,0
2022-08-22T00:03:08.968Z,0
2022-08-22T00:04:24.000Z,0
2022-08-22T00:05:41.000Z,0
2022-08-22T00:06:57.410Z,0
2022-08-22T00:08:13.000Z,0
2022-08-22T00:09:29.710Z,0
2022-08-22T00:10:44.000Z,0
2022-08-22T00:12:00.000Z,0
2022-08-22T00:13:17.157Z,0
2022-08-22T00:14:33.000Z,0
2022-08-22T00:15:49.000Z,0
2022-08-22T00:17:05.000Z,0
2022-08-22T00:18:21.000Z,0
2022-08-22T00:19:37.000Z,0
2022-08-22T00:20:53.000Z,0
2022-08-22T00:22:09.000Z,0
2022-08-22T00:23:26.000Z,0
2022-08-22T00:24:42.000Z,0
2022-08-22T00:25:58.000Z,0
2022-08-22T00:27:13.000Z,0
2022-08-22T00:28:29.000Z,0
2022-08-22T00:29:45.000Z,0
2022-08-22T00:31:02.229Z,0
2022-08-22T00:32:18.000Z,0
2022-08-22T00:33:34.525Z,0
2022-08-22T00:34:50.668Z,0
2022-08-22T00:36:06.000Z,0
2022-08-22T00:37:22.968Z,0
2022-08-22T00:38:38.000Z,0
2022-08-22T00:39:55.276Z,0
2022-08-22T00:41:11.411Z,0
2022-08-22T00:42:27.552Z,0
2022-08-22T00:43:42.000Z,0
2022-08-22T00:44:58.859Z,0
2022-08-22T00:46:15.014Z,0
2022-08-22T00:47:31.157Z,0
2022-08-22T00:48:47.000Z,0
2022-08-22T00:50:03.468Z,0
2022-08-22T00:51:19.000Z,0
2022-08-22T00:52:35.000Z,0
2022-08-22T00:53:51.892Z,0
2022-08-22T00:55:07.000Z,0
2022-08-22T00:56:23.000Z,0
2022-08-22T00:57:40.000Z,0
2022-08-22T00:58:56.470Z,0
2022-08-22T01:00:11.000Z,0
2022-08-22T01:01:27.000Z,0
2022-08-22T01:02:43.000Z,0
2022-08-22T01:03:59.000Z,0
2022-08-22T01:05:15.000Z,0
2022-08-22T01:06:32.000Z,0
2022-08-22T01:07:48.516Z,0
2022-08-22T01:09:04.661Z,0
2022-08-22T01:10:20.000Z,0
2022-08-22T01:11:36.000Z,0
2022-08-22T01:12:52.000Z,0
2022-08-22T01:14:09.000Z,0
2022-08-22T01:15:25.000Z,0
2022-08-22T01:16:40.000Z,0
2022-08-22T01:17:56.000Z,0
2022-08-22T01:19:12.849Z,0
2022-08-22T01:20:28.000Z,0
2022-08-22T01:21:44.000Z,0
2022-08-22T01:23:01.000Z,0
2022-08-22T01:24:17.000Z,0
2022-08-22T01:25:33.000Z,0
2022-08-22T01:26:49.000Z,0
2022-08-22T01:28:05.000Z,0
2022-08-22T01:29:21.000Z,0
2022-08-22T01:30:38.169Z,0
2022-08-22T01:31:54.000Z,0
2022-08-22T01:33:09.000Z,0
2022-08-22T01:34:25.630Z,0
2022-08-22T01:35:41.000Z,0
2022-08-22T01:36:57.926Z,0
2022-08-22T01:38:13.000Z,0
2022-08-22T01:39:30.214Z,0
2022-08-22T01:40:46.358Z,0
2022-08-22T01:42:02.516Z,0
2022-08-22T01:43:18.000Z,0
2022-08-22T01:44:34.000Z,0
2022-08-22T01:45:50.000Z,0
2022-08-22T01:47:06.000Z,0
2022-08-22T01:48:23.244Z,0
2022-08-22T01:49:38.000Z,0
2022-08-22T01:50:54.000Z,0
2022-08-22T01:52:10.000Z,0
2022-08-22T01:53:26.850Z,0
2022-08-22T01:54:42.991Z,0
2022-08-22T01:55:58.000Z,0
2022-08-22T01:57:15.000Z,0
2022-08-22T01:58:31.431Z,0
2022-08-22T01:59:47.000Z,0
2022-08-22T02:01:03.000Z,0
2022-08-22T02:02:19.000Z,0
2022-08-22T02:03:35.000Z,0
2022-08-22T02:04:51.000Z,0
2022-08-22T02:06:07.000Z,0
2022-08-22T02:07:23.477Z,0
2022-08-22T02:08:39.000Z,0
2022-08-22T02:09:55.000Z,0
2022-08-22T02:11:11.000Z,0
2022-08-22T02:12:28.064Z,0
2022-08-22T02:13:42.000Z,0
2022-08-22T02:14:59.000Z,0
2022-08-22T02:16:15.000Z,0
2022-08-22T02:17:31.667Z,0
2022-08-22T02:18:47.000Z,0
2022-08-22T02:20:03.000Z,0
2022-08-22T02:21:20.106Z,0
2022-08-22T02:22:36.000Z,0
2022-08-22T02:23:52.402Z,0
2022-08-22T02:25:08.000Z,0
2022-08-22T02:26:24.000Z,0
2022-08-22T02:27:40.000Z,0
2022-08-22T02:28:56.987Z,0
2022-08-22T02:30:11.000Z,0
2022-08-22T02:31:28.000Z,0
2022-08-22T02:32:44.000Z,0
2022-08-22T02:34:00.591Z,0
2022-08-22T02:35:16.000Z,0
2022-08-22T02:36:32.000Z,0
2022-08-22T02:37:48.000Z,0
2022-08-22T02:39:05.176Z,0
2022-08-22T02:40:21.000Z,0
2022-08-22T02:41:37.000Z,0
2022-08-22T02:42:53.000Z,0
2022-08-22T02:44:09.000Z,0
2022-08-22T02:45:25.000Z,0
2022-08-22T02:46:40.000Z,0
2022-08-22T02:47:57.218Z,0
2022-08-22T02:49:13.364Z,0
2022-08-22T02:50:29.517Z,0
2022-08-22T02:51:45.000Z,0
2022-08-22T02:53:01.000Z,0
2022-08-22T02:54:17.000Z,0
2022-08-22T02:55:33.000Z,0
2022-08-22T02:56:50.000Z,0
2022-08-22T02:58:06.000Z,0
2022-08-22T02:59:22.000Z,0
2022-08-22T03:00:38.000Z,0
2022-08-22T03:01:54.000Z,0
2022-08-22T03:03:09.993Z,0
2022-08-22T03:04:25.000Z,0
2022-08-22T03:05:42.000Z,0
2022-08-22T03:06:58.000Z,0
2022-08-22T03:08:14.000Z,0
2022-08-22T03:09:30.000Z,0
2022-08-22T03:10:46.877Z,0
2022-08-22T03:12:02.000Z,0
2022-08-22T03:13:18.000Z,0
2022-08-22T03:14:35.000Z,0
2022-08-22T03:15:51.000Z,0
2022-08-22T03:17:07.613Z,0
2022-08-22T03:18:23.000Z,0
2022-08-22T03:19:38.000Z,0
2022-08-22T03:20:55.059Z,0
2022-08-22T03:22:10.000Z,0
2022-08-22T03:23:27.000Z,0
2022-08-22T03:24:43.505Z,0
2022-08-22T03:25:59.000Z,0
2022-08-22T03:27:15.000Z,0
2022-08-22T03:28:31.945Z,0
2022-08-22T03:29:47.000Z,0
2022-08-22T03:31:04.000Z,0
2022-08-22T03:32:20.000Z,0
2022-08-22T03:33:36.000Z,0
2022-08-22T03:34:52.000Z,0
2022-08-22T03:36:07.000Z,0
2022-08-22T03:37:23.000Z,0
2022-08-22T03:38:39.000Z,0
2022-08-22T03:39:56.000Z,0
2022-08-22T03:41:12.434Z,0
2022-08-22T03:42:28.575Z,0
2022-08-22T03:43:44.000Z,0
2022-08-22T03:45:00.872Z,4
2022-08-22T03:46:16.000Z,4
2022-08-22T03:47:32.000Z,0
2022-08-22T03:48:49.000Z,4
2022-08-22T03:50:05.000Z,4
2022-08-22T03:51:21.000Z,4
2022-08-22T03:52:36.000Z,8
2022-08-22T03:53:52.000Z,8
2022-08-22T03:55:08.000Z,8
2022-08-22T03:56:24.000Z,12
2022-08-22T03:57:41.000Z,12
2022-08-22T03:58:57.000Z,12
2022-08-22T04:00:13.000Z,16
2022-08-22T04:01:29.000Z,20
2022-08-22T04:02:45.000Z,24
2022-08-22T04:04:02.086Z,24
2022-08-22T04:05:18.000Z,28
2022-08-22T04:06:34.000Z,32
2022-08-22T04:07:50.531Z,36
2022-08-22T04:09:05.000Z,40
2022-08-22T04:10:21.000Z,44
2022-08-22T04:11:37.000Z,48
2022-08-22T04:12:53.000Z,52
2022-08-22T04:14:10.000Z,60
2022-08-22T04:15:26.000Z,64
2022-08-22T04:16:42.572Z,72
2022-08-22T04:17:58.000Z,76
2022-08-22T04:19:14.000Z,80
2022-08-22T04:20:30.000Z,88
2022-08-22T04:21:46.000Z,96
2022-08-22T04:23:03.000Z,104
2022-08-22T04:24:19.464Z,112
2022-08-22T04:25:34.000Z,112
2022-08-22T04:26:50.759Z,124
2022-08-22T04:28:06.000Z,128
2022-08-22T04:29:22.000Z,140
2022-08-22T04:30:39.203Z,144
2022-08-22T04:31:55.000Z,152
2022-08-22T04:33:11.000Z,160
2022-08-22T04:34:27.000Z,168
2022-08-22T04:35:43.000Z,180
2022-08-22T04:36:59.939Z,184
2022-08-22T04:38:15.000Z,192
2022-08-22T04:39:31.000Z,200
2022-08-22T04:40:48.000Z,208
2022-08-22T04:42:03.000Z,216
2022-08-22T04:43:19.000Z,224
2022-08-22T04:44:35.831Z,232
2022-08-22T04:45:51.000Z,244
2022-08-22T04:47:07.000Z,252
2022-08-22T04:48:24.271Z,264
2022-08-22T04:49:40.000Z,272
2022-08-22T04:50:56.000Z,280
2022-08-22T04:52:12.713Z,288
2022-08-22T04:53:28.000Z,304
2022-08-22T04:54:45.014Z,312
2022-08-22T04:56:00.000Z,324
2022-08-22T04:57:17.000Z,336
2022-08-22T04:58:32.476Z,352
2022-08-22T04:59:48.000Z,364
2022-08-22T05:01:04.767Z,384
2022-08-22T05:02:20.000Z,380
2022-08-22T05:03:36.000Z,376
2022-08-22T05:04:52.000Z,372
2022-08-22T05:06:09.346Z,380
2022-08-22T05:07:25.000Z,392
2022-08-22T05:08:41.000Z,404
2022-08-22T05:09:57.783Z,412
2022-08-22T05:11:13.000Z,416
2022-08-22T05:12:30.080Z,416
2022-08-22T05:13:45.000Z,420
2022-08-22T05:15:01.000Z,424
2022-08-22T05:16:17.000Z,432
2022-08-22T05:17:33.000Z,440
2022-08-22T05:18:49.832Z,448
2022-08-22T05:20:05.999Z,460
2022-08-22T05:21:21.000Z,472
2022-08-22T05:22:38.000Z,480
2022-08-22T05:23:54.413Z,484
2022-08-22T05:25:10.000Z,496
2022-08-22T05:26:26.000Z,512
2022-08-22T05:27:42.000Z,532
2022-08-22T05:28:58.000Z,552
2022-08-22T05:30:14.000Z,576
2022-08-22T05:31:30.000Z,588
2022-08-22T05:32:46.000Z,596
2022-08-22T05:34:02.000Z,600
2022-08-22T05:35:18.000Z,608
2022-08-22T05:36:34.901Z,620
2022-08-22T05:37:50.000Z,632
2022-08-22T05:39:06.000Z,636
2022-08-22T05:40:23.000Z,628
2022-08-22T05:41:39.484Z,624
2022-08-22T05:42:55.000Z,612
2022-08-22T05:44:11.000Z,596
2022-08-22T05:45:27.000Z,572
2022-08-22T05:46:43.000Z,556
2022-08-22T05:47:59.244Z,536
2022-08-22T05:49:15.000Z,524
2022-08-22T05:50:31.528Z,512
2022-08-22T05:51:47.000Z,504
2022-08-22T05:53:03.000Z,496
2022-08-22T05:54:19.969Z,492
2022-08-22T05:55:35.000Z,480
2022-08-22T05:56:52.268Z,472
2022-08-22T05:58:08.409Z,464
2022-08-22T05:59:24.000Z,456
2022-08-22T06:00:40.000Z,456
2022-08-22T06:01:56.000Z,452
2022-08-22T06:03:12.000Z,456
2022-08-22T06:04:27.000Z,456
2022-08-22T06:05:44.000Z,452
2022-08-22T06:07:00.000Z,472
2022-08-22T06:08:16.000Z,484
2022-08-22T06:09:32.000Z,488
2022-08-22T06:10:48.898Z,492
2022-08-22T06:12:04.000Z,500
2022-08-22T06:13:20.000Z,504
2022-08-22T06:14:37.000Z,516
2022-08-22T06:15:53.000Z,532
2022-08-22T06:17:09.000Z,544
2022-08-22T06:18:25.000Z,560
2022-08-22T06:19:41.000Z,584
2022-08-22T06:20:56.000Z,608
2022-08-22T06:22:13.000Z,620
2022-08-22T06:23:29.000Z,656
2022-08-22T06:24:45.000Z,692
2022-08-22T06:26:01.000Z,740
2022-08-22T06:27:17.833Z,808
2022-08-22T06:28:32.000Z,896
2022-08-22T06:29:49.140Z,1028
2022-08-22T06:31:05.282Z,1156
2022-08-22T06:32:21.000Z,1264
2022-08-22T06:33:37.000Z,1332
2022-08-22T06:34:53.000Z,1372
2022-08-22T06:36:09.000Z,1368
2022-08-22T06:37:25.000Z,1324
2022-08-22T06:38:41.000Z,1232
2022-08-22T06:39:58.000Z,1144
2022-08-22T06:41:14.000Z,1084
2022-08-22T06:42:30.000Z,1044
2022-08-22T06:43:46.756Z,996
2022-08-22T06:45:01.916Z,928
2022-08-22T06:46:17.000Z,892
2022-08-22T06:47:34.209Z,884
2022-08-22T06:48:50.000Z,920
2022-08-22T06:50:06.000Z,980
2022-08-22T06:51:22.000Z,1048
2022-08-22T06:52:38.000Z,1088
2022-08-22T06:53:54.939Z,1104
2022-08-22T06:55:10.000Z,1108
2022-08-22T06:56:26.000Z,1076
2022-08-22T06:57:43.000Z,1040
2022-08-22T06:58:59.522Z,1024
2022-08-22T07:00:15.000Z,1004
2022-08-22T07:01:30.000Z,956
2022-08-22T07:02:46.000Z,920
2022-08-22T07:04:02.000Z,912
2022-08-22T07:05:19.000Z,916
2022-08-22T07:06:35.000Z,924
2022-08-22T07:07:51.569Z,928
2022-08-22T07:09:07.000Z,916
2022-08-22T07:10:23.000Z,916
2022-08-22T07:11:40.014Z,920
2022-08-22T07:12:56.167Z,932
2022-08-22T07:14:12.000Z,944
2022-08-22T07:15:28.453Z,956
2022-08-22T07:16:44.598Z,980
2022-08-22T07:17:59.755Z,1016
2022-08-22T07:19:15.000Z,1056
2022-08-22T07:20:31.000Z,1120
2022-08-22T07:21:47.000Z,1216
2022-08-22T07:23:04.000Z,1316
2022-08-22T07:24:20.000Z,1388
2022-08-22T07:25:36.000Z,1476
2022-08-22T07:26:52.000Z,1528
2022-08-22T07:28:08.000Z,1588
2022-08-22T07:29:24.000Z,1712
2022-08-22T07:30:41.000Z,1888
2022-08-22T07:31:57.000Z,2000
2022-08-22T07:33:13.000Z,2076
2022-08-22T07:34:28.000Z,2140
2022-08-22T07:35:44.000Z,2188
2022-08-22T07:37:00.000Z,2248
2022-08-22T07:38:17.140Z,2304
2022-08-22T07:39:33.000Z,2372
2022-08-22T07:40:49.000Z,2464
2022-08-22T07:42:05.569Z,2572
2022-08-22T07:43:21.000Z,2728
2022-08-22T07:44:37.000Z,2660
2022-08-22T07:45:53.000Z,2412
2022-08-22T07:47:09.000Z,1956
2022-08-22T07:48:26.000Z,1908
2022-08-22T07:49:42.000Z,2132
2022-08-22T07:50:57.611Z,2792
2022-08-22T07:52:13.000Z,1860
2022-08-22T07:53:29.000Z,2552
2022-08-22T07:54:45.000Z,2812
2022-08-22T07:56:01.000Z,3000
2022-08-22T07:57:18.000Z,2576
2022-08-22T07:58:34.000Z,2184
2022-08-22T07:59:50.000Z,2260
2022-08-22T08:01:06.773Z,2236
2022-08-22T08:02:22.000Z,2584
2022-08-22T08:03:39.080Z,2748
2022-08-22T08:04:54.000Z,2736
2022-08-22T08:06:11.000Z,2764
2022-08-22T08:07:26.000Z,2692
2022-08-22T08:08:42.667Z,2460
2022-08-22T08:09:58.000Z,2228
2022-08-22T08:11:14.000Z,2204
2022-08-22T08:12:30.000Z,2776
2022-08-22T08:13:47.000Z,2664
2022-08-22T08:15:03.000Z,2760
2022-08-22T08:16:19.542Z,2764
2022-08-22T08:17:35.000Z,2792
2022-08-22T08:18:51.829Z,2808
2022-08-22T08:20:07.000Z,2840
2022-08-22T08:21:23.000Z,2840
2022-08-22T08:22:40.000Z,2856
2022-08-22T08:23:55.000Z,2888
2022-08-22T08:25:11.000Z,2928
2022-08-22T08:26:27.000Z,2924
2022-08-22T08:27:43.000Z,2932
2022-08-22T08:29:00.010Z,2932
2022-08-22T08:30:16.152Z,2912
2022-08-22T08:31:32.315Z,2952
2022-08-22T08:32:48.000Z,2952
2022-08-22T08:34:04.000Z,2944
2022-08-22T08:35:20.000Z,2944
2022-08-22T08:36:36.878Z,2960
2022-08-22T08:37:52.000Z,2980
2022-08-22T08:39:08.000Z,3004
2022-08-22T08:40:24.332Z,3016
2022-08-22T08:41:40.000Z,3056
2022-08-22T08:42:56.000Z,3064
2022-08-22T08:44:12.000Z,3080
2022-08-22T08:45:28.000Z,3088
2022-08-22T08:46:45.060Z,3084
2022-08-22T08:48:00.000Z,3140
2022-08-22T08:49:17.350Z,3188
2022-08-22T08:50:33.503Z,3228
2022-08-22T08:51:49.000Z,3280
2022-08-22T08:53:05.000Z,3312
2022-08-22T08:54:21.000Z,3324
2022-08-22T08:55:38.098Z,3300
2022-08-22T08:56:53.000Z,3292
2022-08-22T08:58:09.000Z,3312
2022-08-22T08:59:25.000Z,3380
2022-08-22T09:00:41.670Z,1332
2022-08-22T09:01:57.818Z,1404
2022-08-22T09:03:13.000Z,1280
2022-08-22T09:04:29.000Z,1272
2022-08-22T09:05:46.000Z,1472
2022-08-22T09:07:02.404Z,3532
2022-08-22T09:08:18.000Z,3524
2022-08-22T09:09:34.000Z,3504
2022-08-22T09:10:50.835Z,3492
2022-08-22T09:12:06.000Z,3504
2022-08-22T09:13:21.000Z,3536
2022-08-22T09:14:38.000Z,3580
2022-08-22T09:15:54.000Z,1284
2022-08-22T09:17:10.000Z,1544
2022-08-22T09:18:26.000Z,3628
2022-08-22T09:19:42.000Z,3980
2022-08-22T09:20:59.015Z,3636
2022-08-22T09:22:14.000Z,3880
2022-08-22T09:23:31.311Z,3696
2022-08-22T09:24:47.000Z,3520
2022-08-22T09:26:03.000Z,1672
2022-08-22T09:27:19.746Z,1540
2022-08-22T09:28:35.000Z,1560
2022-08-22T09:29:50.000Z,1620
2022-08-22T09:31:07.196Z,1668
2022-08-22T09:32:23.000Z,1756
2022-08-22T09:33:39.000Z,1928
2022-08-22T09:34:55.000Z,2236
2022-08-22T09:36:11.000Z,3724
2022-08-22T09:37:27.928Z,4088
2022-08-22T09:38:43.000Z,3640
2022-08-22T09:40:00.219Z,2272
2022-08-22T09:41:16.000Z,2288
2022-08-22T09:42:32.000Z,2500
2022-08-22T09:43:48.000Z,2580
2022-08-22T09:45:04.000Z,3732
2022-08-22T09:46:19.000Z,2736
2022-08-22T09:47:35.000Z,2620
2022-08-22T09:48:52.000Z,2676
2022-08-22T09:50:08.000Z,2720
2022-08-22T09:51:24.000Z,2676
2022-08-22T09:52:40.000Z,2592
2022-08-22T09:53:56.000Z,2412
2022-08-22T09:55:12.000Z,2268
2022-08-22T09:56:29.127Z,2188
2022-08-22T09:57:45.000Z,2104
2022-08-22T09:59:01.000Z,1808
2022-08-22T10:00:17.000Z,1648
2022-08-22T10:01:33.000Z,1644
2022-08-22T10:02:48.893Z,1696
2022-08-22T10:04:04.000Z,1740
2022-08-22T10:05:20.000Z,1788
2022-08-22T10:06:37.000Z,1852
2022-08-22T10:07:53.462Z,1980
2022-08-22T10:09:09.000Z,2068
2022-08-22T10:10:25.000Z,2012
2022-08-22T10:11:41.000Z,2036
2022-08-22T10:12:57.000Z,1968
2022-08-22T10:14:13.000Z,2092
2022-08-22T10:15:30.000Z,2476
2022-08-22T10:16:46.000Z,2568
2022-08-22T10:18:02.615Z,2476
2022-08-22T10:19:17.000Z,2312
2022-08-22T10:20:33.000Z,2072
2022-08-22T10:21:49.000Z,1888
2022-08-22T10:23:05.000Z,1792
2022-08-22T10:24:22.354Z,2048
2022-08-22T10:25:38.000Z,2384
2022-08-22T10:26:54.657Z,2876
2022-08-22T10:28:10.000Z,3236
2022-08-22T10:29:26.000Z,3780
2022-08-22T10:30:42.000Z,4864
2022-08-22T10:31:59.225Z,5080
2022-08-22T10:33:15.382Z,5588
2022-08-22T10:34:31.518Z,5400
2022-08-22T10:35:46.000Z,5000
2022-08-22T10:37:02.828Z,4516
2022-08-22T10:38:18.000Z,4216
2022-08-22T10:39:34.000Z,4264
2022-08-22T10:40:51.000Z,3564
2022-08-22T10:42:07.000Z,3912
2022-08-22T10:43:22.000Z,3992
2022-08-22T10:44:38.000Z,4268
2022-08-22T10:45:54.859Z,3236
2022-08-22T10:47:10.000Z,3744
2022-08-22T10:48:26.000Z,4572
2022-08-22T10:49:43.000Z,5472
2022-08-22T10:50:59.000Z,4984
2022-08-22T10:52:15.000Z,4252
2022-08-22T10:53:31.000Z,3864
2022-08-22T10:54:47.878Z,3384
2022-08-22T10:56:03.000Z,3380
2022-08-22T10:57:19.000Z,2716
2022-08-22T10:58:36.000Z,2616
2022-08-22T10:59:51.000Z,2232
2022-08-22T11:01:07.000Z,2072
2022-08-22T11:02:23.000Z,2540
2022-08-22T11:03:39.000Z,3508
2022-08-22T11:04:55.000Z,3896
2022-08-22T11:06:11.000Z,3292
2022-08-22T11:07:28.000Z,3700
2022-08-22T11:08:44.000Z,3804
2022-08-22T11:10:00.000Z,3828
2022-08-22T11:11:16.000Z,3932
2022-08-22T11:12:32.000Z,4012
2022-08-22T11:13:48.000Z,3804
2022-08-22T11:15:04.000Z,3728
2022-08-22T11:16:20.000Z,4000
2022-08-22T11:17:36.000Z,3176
2022-08-22T11:18:52.000Z,2664
2022-08-22T11:20:08.000Z,4036
2022-08-22T11:21:24.000Z,4508
2022-08-22T11:22:40.000Z,4424
2022-08-22T11:23:57.000Z,4548
2022-08-22T11:25:13.000Z,4660
2022-08-22T11:26:29.000Z,2960
2022-08-22T11:27:45.000Z,3124
2022-08-22T11:29:01.000Z,4404
2022-08-22T11:30:17.000Z,4100
2022-08-22T11:31:33.000Z,3724
2022-08-22T11:32:49.300Z,3232
2022-08-22T11:34:05.000Z,2964
2022-08-22T11:35:21.000Z,2328
2022-08-22T11:36:37.000Z,2448
2022-08-22T11:37:53.000Z,3200
2022-08-22T11:39:09.000Z,3348
2022-08-22T11:40:25.000Z,3632
2022-08-22T11:41:42.000Z,3304
2022-08-22T11:42:58.000Z,3376
2022-08-22T11:44:14.000Z,3148
2022-08-22T11:45:30.000Z,2296
2022-08-22T11:46:46.000Z,2584
2022-08-22T11:48:02.000Z,3796
2022-08-22T11:49:17.000Z,2712
2022-08-22T11:50:34.000Z,2936
2022-08-22T11:51:50.000Z,3164
2022-08-22T11:53:06.000Z,3056
2022-08-22T11:54:22.000Z,2928
2022-08-22T11:55:38.000Z,2976
2022-08-22T11:56:54.000Z,3056
2022-08-22T11:58:10.000Z,3344
2022-08-22T11:59:27.000Z,3596
2022-08-22T12:00:43.000Z,3704
2022-08-22T12:01:59.000Z,3848
2022-08-22T12:03:15.000Z,3296
2022-08-22T12:04:31.000Z,3192
2022-08-22T12:05:47.131Z,4760
2022-08-22T12:07:03.000Z,5084
2022-08-22T12:08:19.000Z,5252
2022-08-22T12:09:35.000Z,4020
2022-08-22T12:10:51.000Z,4660
2022-08-22T12:12:07.000Z,4136
2022-08-22T12:13:23.000Z,6120
2022-08-22T12:14:39.000Z,5824
2022-08-22T12:15:56.000Z,4464
2022-08-22T12:17:12.000Z,4132
2022-08-22T12:18:28.000Z,3792
2022-08-22T12:19:44.000Z,3812
2022-08-22T12:21:00.000Z,3760
2022-08-22T12:26:04.000Z,2876
2022-08-22T12:27:19.000Z,2832
2022-08-22T12:28:34.000Z,2804
2022-08-22T12:29:50.000Z,2816
2022-08-22T12:32:23.233Z,2920
2022-08-22T12:33:39.000Z,2800
2022-08-22T12:34:55.000Z,2648
2022-08-22T12:36:11.000Z,2864
2022-08-22T12:37:27.000Z,3288
2022-08-22T12:38:43.000Z,4340
2022-08-22T12:40:00.108Z,4288
2022-08-22T12:41:16.000Z,4800
2022-08-22T12:42:32.000Z,3664
2022-08-22T12:43:48.000Z,3344
2022-08-22T12:45:03.000Z,3096
2022-08-22T12:46:19.000Z,3128
2022-08-22T12:47:35.000Z,3412
2022-08-22T12:48:51.000Z,3476
2022-08-22T12:50:08.000Z,3288
2022-08-22T12:51:24.000Z,2968
2022-08-22T12:52:40.000Z,2696
2022-08-22T12:53:56.000Z,2516
2022-08-22T12:55:11.000Z,2328
2022-08-22T12:56:26.000Z,1992
2022-08-22T12:57:42.000Z,1788
2022-08-22T12:58:59.000Z,1704
2022-08-22T13:00:15.000Z,1660
2022-08-22T13:01:31.636Z,1532
2022-08-22T13:02:47.000Z,1436
2022-08-22T13:04:03.000Z,1468
2022-08-22T13:05:19.000Z,1592
2022-08-22T13:06:35.000Z,1724
2022-08-22T13:07:52.000Z,1836
2022-08-22T13:09:08.000Z,1900
2022-08-22T13:10:24.000Z,1948
2022-08-22T13:11:40.799Z,2156
2022-08-22T13:12:55.000Z,2608
2022-08-22T13:14:12.106Z,3152
2022-08-22T13:15:28.000Z,2620
2022-08-22T13:16:44.000Z,2712
2022-08-22T13:18:00.000Z,2808
2022-08-22T13:19:16.000Z,3088
2022-08-22T13:20:32.000Z,3344
2022-08-22T13:21:48.983Z,3296
2022-08-22T13:23:04.000Z,2920
2022-08-22T13:24:21.273Z,2780
2022-08-22T13:25:37.000Z,2788
2022-08-22T13:26:53.000Z,2888
2022-08-22T13:28:09.000Z,2988
2022-08-22T13:29:24.000Z,3220
2022-08-22T13:30:40.000Z,3428
2022-08-22T13:31:56.000Z,3296
2022-08-22T13:33:13.000Z,2848
2022-08-22T13:34:29.000Z,2656
2022-08-22T13:35:45.000Z,2732
2022-08-22T13:37:01.000Z,2756
2022-08-22T13:38:17.000Z,2700
2022-08-22T13:39:34.027Z,2488
2022-08-22T13:40:49.000Z,2460
2022-08-22T13:42:06.000Z,2468
2022-08-22T13:43:22.000Z,2420
2022-08-22T13:44:38.000Z,2544
2022-08-22T13:45:53.000Z,2644
2022-08-22T13:47:09.000Z,2544
2022-08-22T13:48:25.000Z,2336
2022-08-22T13:49:41.000Z,2268
2022-08-22T13:50:58.000Z,2144
2022-08-22T13:52:14.000Z,2012
2022-08-22T13:53:30.000Z,2024
2022-08-22T13:54:46.000Z,2192
2022-08-22T13:56:02.000Z,2408
2022-08-22T13:57:18.000Z,2636
2022-08-22T13:58:34.000Z,2848
2022-08-22T13:59:51.000Z,3024
2022-08-22T14:01:07.000Z,3188
2022-08-22T14:02:22.682Z,3316
2022-08-22T14:03:38.000Z,3404
2022-08-22T14:04:54.000Z,3520
2022-08-22T14:06:10.000Z,4008
2022-08-22T14:07:27.000Z,4164
2022-08-22T14:08:43.000Z,4360
2022-08-22T14:09:59.000Z,4340
2022-08-22T14:11:15.000Z,4232
2022-08-22T14:12:31.837Z,4312
2022-08-22T14:13:47.000Z,3996
2022-08-22T14:15:03.000Z,3804
2022-08-22T14:16:20.000Z,3880
2022-08-22T14:17:36.000Z,3752
2022-08-22T14:18:51.000Z,3560
2022-08-22T14:20:07.000Z,3184
2022-08-22T14:21:23.000Z,3188
2022-08-22T14:22:40.019Z,2988
2022-08-22T14:23:55.000Z,2884
2022-08-22T14:25:12.000Z,2640
2022-08-22T14:26:28.000Z,2332
2022-08-22T14:27:44.000Z,2180
2022-08-22T14:29:00.742Z,1888
2022-08-22T14:30:16.000Z,1756
2022-08-22T14:31:33.045Z,1684
2022-08-22T14:34:05.341Z,1536
2022-08-22T14:35:21.484Z,1540
2022-08-22T14:36:36.649Z,1584
2022-08-22T14:37:52.780Z,1640
2022-08-22T14:39:08.925Z,1792
2022-08-22T14:40:24.000Z,1908
2022-08-22T14:41:41.214Z,1984
2022-08-22T14:42:57.000Z,2140
2022-08-22T14:44:13.000Z,2292
2022-08-22T14:45:29.000Z,2528
2022-08-22T14:46:45.000Z,2556
2022-08-22T14:48:01.000Z,2696
2022-08-22T14:49:17.000Z,2792
2022-08-22T14:50:34.000Z,2784
2022-08-22T14:51:50.000Z,2788
2022-08-22T14:53:05.000Z,2680
2022-08-22T14:54:21.686Z,2648
2022-08-22T14:55:37.835Z,2656
2022-08-22T14:56:53.000Z,2588
2022-08-22T14:58:08.000Z,2536
2022-08-22T14:59:25.000Z,2436
2022-08-22T15:00:41.000Z,2252
2022-08-22T15:01:57.000Z,2200
2022-08-22T15:03:13.729Z,2172
2022-08-22T15:04:29.000Z,2212
2022-08-22T15:05:45.000Z,2048
2022-08-22T15:07:01.000Z,1908
2022-08-22T15:08:18.000Z,1868
2022-08-22T15:09:34.000Z,1788
2022-08-22T15:10:50.000Z,1772
2022-08-22T15:12:06.745Z,1828
2022-08-22T15:13:22.000Z,1852
2022-08-22T15:14:38.047Z,1852
2022-08-22T15:15:54.200Z,1816
2022-08-22T15:17:10.000Z,1848
2022-08-22T15:18:26.000Z,1880
2022-08-22T15:19:42.631Z,1972
2022-08-22T15:20:58.000Z,2080
2022-08-22T15:22:14.000Z,2160
2022-08-22T15:23:30.000Z,2104
2022-08-22T15:24:47.212Z,2008
2022-08-22T15:26:03.000Z,1936
2022-08-22T15:27:19.000Z,2016
2022-08-22T15:28:35.000Z,2184
2022-08-22T15:29:51.000Z,2340
2022-08-22T15:31:06.964Z,2448
2022-08-22T15:32:22.000Z,2468
2022-08-22T15:33:39.000Z,2400
2022-08-22T15:34:55.000Z,2348
2022-08-22T15:36:11.539Z,2308
2022-08-22T15:37:27.686Z,2304
2022-08-22T15:38:43.000Z,2284
2022-08-22T15:39:59.000Z,2260
2022-08-22T15:41:15.000Z,2292
2022-08-22T15:42:32.000Z,2204
2022-08-22T15:43:48.000Z,1976
2022-08-22T15:45:04.000Z,1820
2022-08-22T15:46:20.000Z,1764
2022-08-22T15:47:35.862Z,1772
2022-08-22T15:48:51.000Z,1840
2022-08-22T15:50:07.000Z,2048
2022-08-22T15:51:24.000Z,2160
2022-08-22T15:52:40.000Z,2188
2022-08-22T15:53:56.000Z,2112
2022-08-22T15:55:12.000Z,1924
2022-08-22T15:56:28.000Z,1792
2022-08-22T15:57:44.000Z,1592
2022-08-22T15:59:00.000Z,1388
2022-08-22T16:00:17.317Z,1168
2022-08-22T16:01:33.467Z,980
2022-08-22T16:02:49.000Z,892
2022-08-22T16:04:04.000Z,840
2022-08-22T16:05:20.000Z,852
2022-08-22T16:06:36.000Z,844
2022-08-22T16:07:53.198Z,736
2022-08-22T16:09:09.000Z,596
2022-08-22T16:10:25.000Z,520
2022-08-22T16:11:41.000Z,456
2022-08-22T16:12:57.000Z,416
2022-08-22T16:14:13.000Z,396
2022-08-22T16:15:30.074Z,376
2022-08-22T16:16:46.219Z,376
2022-08-22T16:18:02.000Z,372
2022-08-22T16:19:18.000Z,384
2022-08-22T16:20:33.000Z,408
2022-08-22T16:21:49.813Z,420
2022-08-22T16:24:21.000Z,436
2022-08-22T16:25:38.000Z,448
2022-08-22T16:26:54.000Z,508
2022-08-22T16:28:10.546Z,576
2022-08-22T16:29:26.000Z,636
2022-08-22T16:30:42.000Z,672
2022-08-22T16:31:58.000Z,724
2022-08-22T16:33:15.118Z,724
2022-08-22T16:34:31.000Z,768
2022-08-22T16:35:47.000Z,760
2022-08-22T16:37:02.000Z,700
2022-08-22T16:38:18.000Z,676
2022-08-22T16:39:34.000Z,656
2022-08-22T16:40:50.000Z,652
2022-08-22T16:42:06.000Z,660
2022-08-22T16:43:23.000Z,676
2022-08-22T16:44:39.446Z,680
2022-08-22T16:45:55.000Z,676
2022-08-22T16:47:11.000Z,664
2022-08-22T16:48:27.000Z,640
2022-08-22T16:49:43.000Z,644
2022-08-22T16:50:59.000Z,668
2022-08-22T16:52:16.000Z,692
2022-08-22T16:53:31.000Z,708
2022-08-22T16:54:47.000Z,720
2022-08-22T16:56:03.000Z,716
2022-08-22T16:57:19.000Z,720
2022-08-22T16:58:36.060Z,740
2022-08-22T16:59:51.000Z,752
2022-08-22T17:01:08.000Z,780
2022-08-22T17:02:24.000Z,756
2022-08-22T17:03:40.000Z,740
2022-08-22T17:04:56.000Z,716
2022-08-22T17:06:12.000Z,700
2022-08-22T17:07:28.000Z,700
2022-08-22T17:08:44.000Z,700
2022-08-22T17:10:00.000Z,724
2022-08-22T17:11:16.000Z,744
2022-08-22T17:12:32.000Z,768
2022-08-22T17:13:48.000Z,788
2022-08-22T17:15:04.000Z,792
2022-08-22T17:16:20.000Z,796
2022-08-22T17:17:37.000Z,812
2022-08-22T17:18:53.000Z,832
2022-08-22T17:20:09.000Z,840
2022-08-22T17:21:25.000Z,840
2022-08-22T17:22:41.000Z,828
2022-08-22T17:23:57.000Z,804
2022-08-22T17:25:13.000Z,776
2022-08-22T17:26:29.000Z,744
2022-08-22T17:27:45.000Z,724
2022-08-22T17:29:01.000Z,704
2022-08-22T17:30:17.000Z,688
2022-08-22T17:31:33.000Z,668
2022-08-22T17:32:49.000Z,640